createdAt,value
2018-02-25T00:00:19.674Z,98866.10
2018-02-25T00:01:23.201Z,98864.34
2018-02-25T00:02:26.608Z,98874.39
2018-02-25T00:03:29.938Z,98866.69
2018-02-25T00:04:33.334Z,98874.39
2018-02-25T00:05:36.821Z,98869.66
2018-02-25T00:06:40.280Z,98858.53
2018-02-25T00:07:43.638Z,98869.20
2018-02-25T00:08:47.353Z,98856.10
2018-02-25T00:09:50.697Z,98870.48
2018-02-25T00:10:54.031Z,98863.27
2018-02-25T00:11:57.441Z,98861.44
2018-02-25T00:13:01.243Z,98858.92
2018-02-25T00:14:04.850Z,98863.87
2018-02-25T00:15:08.702Z,98861.93
2018-02-25T00:16:12.092Z,98853.38
2018-02-25T00:17:15.335Z,98863.72
2018-02-25T00:18:18.630Z,98843.16
2018-02-25T00:19:21.927Z,98856.73
2018-02-25T00:20:25.363Z,98863.69
2018-02-25T00:21:29.049Z,98872.97
2018-02-25T00:22:32.409Z,98877.28
2018-02-25T00:23:35.676Z,98877.36
2018-02-25T00:24:39.074Z,98879.30
2018-02-25T00:25:42.528Z,98869.54
2018-02-25T00:26:45.974Z,98875.42
2018-02-25T00:27:49.352Z,98872.55
2018-02-25T00:28:52.796Z,98874.27
2018-02-25T00:29:56.260Z,98877.12
2018-02-25T00:30:59.684Z,98884.61
2018-02-25T00:32:03.123Z,98879.77
2018-02-25T00:33:06.863Z,98879.91
2018-02-25T00:34:10.260Z,98881.70
2018-02-25T00:35:13.745Z,98893.07
2018-02-25T00:36:17.115Z,98870.09
2018-02-25T00:37:20.635Z,98880.73
2018-02-25T00:38:24.162Z,98886.62
2018-02-25T00:39:27.998Z,98875.57
2018-02-25T00:40:31.438Z,98878.11
2018-02-25T00:41:34.902Z,98876.08
2018-02-25T00:42:38.412Z,98876.69
2018-02-25T00:43:41.940Z,98883.52
2018-02-25T00:44:45.336Z,98873.45
2018-02-25T00:45:48.724Z,98885.33
2018-02-25T00:46:52.265Z,98878.41
2018-02-25T00:47:55.796Z,98886.12
2018-02-25T00:48:59.308Z,98876.75
2018-02-25T00:50:02.791Z,98879.98
2018-02-25T00:51:06.526Z,98882.56
2018-02-25T00:52:10.011Z,98888.30
2018-02-25T00:53:13.368Z,98887.45
2018-02-25T00:54:17.023Z,98852.64
2018-02-25T00:55:20.572Z,98877.13
2018-02-25T00:56:24.078Z,98889.80
2018-02-25T00:57:27.766Z,98881.72
2018-02-25T00:58:31.244Z,98877.47
2018-02-25T00:59:34.725Z,98885.52
2018-02-25T01:00:38.204Z,98886.81
2018-02-25T01:01:41.726Z,98880.41
2018-02-25T01:02:45.163Z,98876.28
2018-02-25T01:03:48.925Z,98877.73
2018-02-25T01:04:52.428Z,98879.42
2018-02-25T01:05:55.896Z,98884.12
2018-02-25T01:06:59.475Z,98877.00
2018-02-25T01:08:03.048Z,98878.00
2018-02-25T01:09:06.665Z,98879.38
2018-02-25T01:10:10.417Z,98882.94
2018-02-25T01:11:13.864Z,98877.39
2018-02-25T01:12:17.527Z,98881.75
2018-02-25T01:13:21.102Z,98865.94
2018-02-25T01:14:24.709Z,98866.63
2018-02-25T01:15:28.457Z,98872.77
2018-02-25T01:16:32.217Z,98862.89
2018-02-25T01:17:35.895Z,98875.14
2018-02-25T01:18:39.463Z,98874.11
2018-02-25T01:19:43.054Z,98865.31
2018-02-25T01:20:46.565Z,98874.16
2018-02-25T01:21:50.098Z,98872.13
2018-02-25T01:22:54.097Z,98870.44
2018-02-25T01:23:57.674Z,98874.64
2018-02-25T01:25:01.242Z,98868.22
2018-02-25T01:26:04.914Z,98873.83
2018-02-25T01:27:08.664Z,98865.60
2018-02-25T01:28:12.368Z,98858.49
2018-02-25T01:29:16.108Z,98871.28
2018-02-25T01:30:19.774Z,98858.70
2018-02-25T01:31:23.293Z,98869.21
2018-02-25T01:32:27.140Z,98870.69
2018-02-25T01:33:30.650Z,98869.67
2018-02-25T01:34:34.169Z,98861.06
2018-02-25T01:35:37.693Z,98861.35
2018-02-25T01:36:41.287Z,98864.87
2018-02-25T01:37:44.980Z,98857.06
2018-02-25T01:38:48.509Z,98860.97
2018-02-25T01:39:52.304Z,98862.20
2018-02-25T01:40:56.762Z,98852.88
2018-02-25T01:42:00.607Z,98864.62
2018-02-25T01:43:04.330Z,98868.03
2018-02-25T01:44:08.166Z,98858.27
2018-02-25T01:45:12.052Z,98847.55
2018-02-25T01:46:15.755Z,98832.52
2018-02-25T01:47:19.597Z,98856.31
2018-02-25T01:48:23.813Z,98858.99
2018-02-25T01:49:27.619Z,98869.80
2018-02-25T01:50:31.372Z,98859.54
2018-02-25T01:51:34.955Z,98854.84
2018-02-25T01:52:38.676Z,98863.10
2018-02-25T01:53:42.324Z,98867.00
2018-02-25T01:54:46.181Z,98860.23
2018-02-25T01:55:49.885Z,98858.94
2018-02-25T01:56:53.699Z,98865.63
2018-02-25T01:57:57.115Z,98862.22
2018-02-25T01:59:00.742Z,98858.77
2018-02-25T02:00:04.509Z,98855.19
2018-02-25T02:01:08.803Z,98854.79
2018-02-25T02:02:12.321Z,98851.84
2018-02-25T02:03:15.777Z,98848.27
2018-02-25T02:04:19.387Z,98855.70
2018-02-25T02:05:22.869Z,98861.68
2018-02-25T02:06:26.716Z,98863.31
2018-02-25T02:07:30.646Z,98851.30
2018-02-25T02:08:34.416Z,98857.77
2018-02-25T02:09:38.502Z,98864.55
2018-02-25T02:10:42.278Z,98859.24
2018-02-25T02:11:46.122Z,98856.49
2018-02-25T02:12:49.728Z,98856.14
2018-02-25T02:13:53.735Z,98855.90
2018-02-25T02:14:57.466Z,98862.75
2018-02-25T02:16:01.355Z,98861.83
2018-02-25T02:17:04.990Z,98871.94
2018-02-25T02:18:08.882Z,98865.27
2018-02-25T02:19:12.765Z,98864.83
2018-02-25T02:20:18.031Z,98873.03
2018-02-25T02:21:22.145Z,98863.95
2018-02-25T02:22:25.968Z,98866.50
2018-02-25T02:23:29.878Z,98874.06
2018-02-25T02:24:33.781Z,98870.71
2018-02-25T02:25:37.572Z,98865.13
2018-02-25T02:26:41.684Z,98863.45
2018-02-25T02:27:45.303Z,98876.73
2018-02-25T02:28:49.146Z,98879.98
2018-02-25T02:29:52.857Z,98879.49
2018-02-25T02:30:56.629Z,98881.72
2018-02-25T02:32:00.360Z,98873.52
2018-02-25T02:33:04.338Z,98879.25
2018-02-25T02:34:08.126Z,98869.91
2018-02-25T02:35:11.742Z,98877.16
2018-02-25T02:36:15.473Z,98872.05
2018-02-25T02:37:19.249Z,98882.95
2018-02-25T02:38:23.044Z,98884.58
2018-02-25T02:39:27.010Z,98885.02
2018-02-25T02:40:30.728Z,98887.42
2018-02-25T02:41:34.562Z,98884.81
2018-02-25T02:42:38.481Z,98881.50
2018-02-25T02:43:42.376Z,98885.06
2018-02-25T02:44:46.096Z,98883.48
2018-02-25T02:45:50.294Z,98890.83
2018-02-25T02:46:54.252Z,98883.88
2018-02-25T02:47:58.158Z,98887.23
2018-02-25T02:49:01.919Z,98887.77
2018-02-25T02:50:05.560Z,98887.28
2018-02-25T02:51:09.088Z,98896.78
2018-02-25T02:52:13.182Z,98899.25
2018-02-25T02:53:16.880Z,98901.05
2018-02-25T02:54:20.628Z,98901.21
2018-02-25T02:55:24.223Z,98902.92
2018-02-25T02:56:27.990Z,98905.19
2018-02-25T02:57:31.793Z,98902.38
2018-02-25T02:58:35.776Z,98903.49
2018-02-25T02:59:39.320Z,98909.56
2018-02-25T03:00:43.262Z,98903.88
2018-02-25T03:01:47.205Z,98908.25
2018-02-25T03:02:50.950Z,98903.12
2018-02-25T03:03:54.774Z,98903.71
2018-02-25T03:04:59.024Z,98899.98
2018-02-25T03:06:02.747Z,98911.68
2018-02-25T03:07:06.555Z,98903.81
2018-02-25T03:08:10.394Z,98917.53
2018-02-25T03:09:14.178Z,98916.27
2018-02-25T03:10:17.948Z,98913.90
2018-02-25T03:11:21.618Z,98916.02
2018-02-25T03:12:24.983Z,98917.26
2018-02-25T03:13:28.634Z,98922.48
2018-02-25T03:14:32.123Z,98913.36
2018-02-25T03:15:36.048Z,98906.55
2018-02-25T03:16:39.947Z,98914.15
2018-02-25T03:17:43.955Z,98912.59
2018-02-25T03:18:47.772Z,98915.62
2018-02-25T03:19:51.549Z,98920.27
2018-02-25T03:20:55.179Z,98917.92
2018-02-25T03:21:58.845Z,98919.65
2018-02-25T03:23:02.653Z,98912.59
2018-02-25T03:24:06.544Z,98913.67
2018-02-25T03:25:10.290Z,98907.44
2018-02-25T03:26:14.726Z,98918.77
2018-02-25T03:27:18.431Z,98915.23
2018-02-25T03:28:22.324Z,98918.17
2018-02-25T03:29:26.281Z,98930.03
2018-02-25T03:30:30.029Z,98930.72
2018-02-25T03:31:33.825Z,98935.56
2018-02-25T03:32:37.731Z,98933.28
2018-02-25T03:33:41.902Z,98931.26
2018-02-25T03:34:45.608Z,98929.39
2018-02-25T03:35:49.612Z,98932.20
2018-02-25T03:36:54.159Z,98922.83
2018-02-25T03:37:57.852Z,98930.48
2018-02-25T03:39:01.635Z,98934.77
2018-02-25T03:40:05.518Z,98931.02
2018-02-25T03:41:08.714Z,98941.41
2018-02-25T03:42:12.630Z,98946.22
2018-02-25T03:43:16.183Z,98938.20
2018-02-25T03:44:19.730Z,98929.23
2018-02-25T03:45:23.304Z,98926.13
2018-02-25T03:46:27.087Z,98934.62
2018-02-25T03:47:30.499Z,98935.80
2018-02-25T03:48:34.222Z,98936.44
2018-02-25T03:49:37.742Z,98938.36
2018-02-25T03:50:41.250Z,98936.98
2018-02-25T03:51:44.907Z,98944.92
2018-02-25T03:52:48.403Z,98948.63
2018-02-25T03:53:52.350Z,98944.82
2018-02-25T03:54:56.122Z,98949.81
2018-02-25T03:55:59.430Z,98949.66
2018-02-25T03:57:03.265Z,98961.28
2018-02-25T03:58:06.896Z,98956.28
2018-02-25T03:59:10.227Z,98966.70
2018-02-25T04:00:13.447Z,98963.47
2018-02-25T04:01:17.551Z,98971.31
2018-02-25T04:02:20.716Z,98975.34
2018-02-25T04:03:25.163Z,98974.66
2018-02-25T04:04:28.544Z,98967.02
2018-02-25T04:05:32.910Z,98965.09
2018-02-25T04:06:36.346Z,98971.31
2018-02-25T04:07:40.205Z,98975.88
2018-02-25T04:08:43.856Z,98981.66
2018-02-25T04:09:47.238Z,98961.23
2018-02-25T04:10:50.694Z,98969.36
2018-02-25T04:11:54.208Z,98961.04
2018-02-25T04:12:57.816Z,98965.58
2018-02-25T04:14:01.478Z,98966.34
2018-02-25T04:15:05.243Z,98966.45
2018-02-25T04:16:08.764Z,98973.39
2018-02-25T04:17:12.125Z,98961.23
2018-02-25T04:18:15.731Z,98965.20
2018-02-25T04:19:18.951Z,98958.86
2018-02-25T04:20:22.950Z,98954.82
2018-02-25T04:21:26.520Z,98965.73
2018-02-25T04:22:29.966Z,98966.76
2018-02-25T04:23:33.422Z,98970.42
2018-02-25T04:24:36.875Z,98970.19
2018-02-25T04:25:40.517Z,98973.80
2018-02-25T04:26:44.177Z,98972.89
2018-02-25T04:27:47.604Z,98973.15
2018-02-25T04:28:51.006Z,98978.41
2018-02-25T04:29:54.482Z,98976.99
2018-02-25T04:30:57.913Z,98978.58
2018-02-25T04:32:01.489Z,98983.65
2018-02-25T04:33:05.321Z,98988.19
2018-02-25T04:34:09.150Z,98986.38
2018-02-25T04:35:12.585Z,98988.14
2018-02-25T04:36:15.889Z,98985.34
2018-02-25T04:37:19.882Z,98986.74
2018-02-25T04:38:23.249Z,98987.60
2018-02-25T04:39:27.108Z,98993.78
2018-02-25T04:40:30.598Z,98980.53
2018-02-25T04:41:34.083Z,98993.09
2018-02-25T04:42:37.600Z,98990.16
2018-02-25T04:43:40.902Z,98989.83
2018-02-25T04:44:44.186Z,98989.47
2018-02-25T04:45:47.619Z,98995.48
2018-02-25T04:46:51.490Z,98994.86
2018-02-25T04:47:55.085Z,99004.00
2018-02-25T04:48:58.642Z,99003.50
2018-02-25T04:50:02.101Z,99006.98
2018-02-25T04:51:06.108Z,99009.70
2018-02-25T04:52:10.679Z,99009.36
2018-02-25T04:53:14.258Z,99019.51
2018-02-25T04:54:17.877Z,99010.81
2018-02-25T04:55:21.520Z,99013.64
2018-02-25T04:56:25.048Z,99020.53
2018-02-25T04:57:29.052Z,99013.23
2018-02-25T04:58:32.392Z,99012.23
2018-02-25T04:59:36.014Z,99019.30
2018-02-25T05:00:39.309Z,99022.17
2018-02-25T05:01:42.639Z,99022.53
2018-02-25T05:02:46.130Z,99018.65
2018-02-25T05:03:49.805Z,99012.42
2018-02-25T05:04:53.051Z,99022.86
2018-02-25T05:05:56.371Z,99017.53
2018-02-25T05:07:00.031Z,99016.27
2018-02-25T05:08:03.359Z,99015.27
2018-02-25T05:09:06.943Z,99008.04
2018-02-25T05:10:10.722Z,99015.27
2018-02-25T05:11:13.973Z,99015.41
2018-02-25T05:12:17.400Z,99017.75
2018-02-25T05:13:20.714Z,99026.34
2018-02-25T05:14:24.023Z,99023.03
2018-02-25T05:15:27.462Z,99025.30
2018-02-25T05:16:31.138Z,99029.00
2018-02-25T05:17:34.459Z,99028.49
2018-02-25T05:18:37.916Z,99024.07
2018-02-25T05:19:41.248Z,99026.81
2018-02-25T05:20:44.724Z,99031.98
2018-02-25T05:21:48.068Z,99033.21
2018-02-25T05:22:52.104Z,99032.23
2018-02-25T05:23:55.590Z,99033.86
2018-02-25T05:24:58.974Z,99031.20
2018-02-25T05:26:02.311Z,99033.68
2018-02-25T05:27:06.037Z,99034.65
2018-02-25T05:28:10.674Z,99033.17
2018-02-25T05:29:14.357Z,99030.41
2018-02-25T05:30:17.871Z,99032.13
2018-02-25T05:31:21.509Z,99035.70
2018-02-25T05:32:24.927Z,99033.81
2018-02-25T05:33:28.670Z,99035.65
2018-02-25T05:34:32.592Z,99035.11
2018-02-25T05:35:35.875Z,99035.89
2018-02-25T05:36:39.200Z,99029.50
2018-02-25T05:37:42.582Z,99030.36
2018-02-25T05:38:45.971Z,99032.92
2018-02-25T05:39:49.398Z,99033.45
2018-02-25T05:40:53.113Z,99033.53
2018-02-25T05:41:56.530Z,99030.08
2018-02-25T05:42:59.787Z,99032.55
2018-02-25T05:44:03.179Z,99022.58
2018-02-25T05:45:06.823Z,99032.00
2018-02-25T05:46:10.261Z,99029.86
2018-02-25T05:47:14.197Z,99031.13
2018-02-25T05:48:17.618Z,99024.11
2018-02-25T05:49:20.951Z,99026.63
2018-02-25T05:50:24.441Z,99028.59
2018-02-25T05:51:27.712Z,99018.71
2018-02-25T05:52:31.190Z,99022.45
2018-02-25T05:53:35.137Z,99023.31
2018-02-25T05:54:38.476Z,99026.37
2018-02-25T05:55:41.742Z,99028.68
2018-02-25T05:56:45.072Z,99026.14
2018-02-25T05:57:48.318Z,99034.48
2018-02-25T05:58:52.110Z,99025.70
2018-02-25T05:59:56.051Z,99020.78
2018-02-25T06:00:59.500Z,99022.62
2018-02-25T06:02:03.078Z,99029.80
2018-02-25T06:03:06.399Z,99028.91
2018-02-25T06:04:10.444Z,99024.95
2018-02-25T06:05:14.305Z,99024.70
2018-02-25T06:06:18.418Z,99025.42
2018-02-25T06:07:21.858Z,99027.10
2018-02-25T06:08:25.306Z,99019.93
2018-02-25T06:09:28.682Z,99023.34
2018-02-25T06:10:32.271Z,99021.91
2018-02-25T06:11:35.880Z,99023.64
2018-02-25T06:12:39.799Z,99019.58
2018-02-25T06:13:43.571Z,99022.43
2018-02-25T06:14:47.289Z,99020.05
2018-02-25T06:15:50.971Z,99023.60
2018-02-25T06:16:54.624Z,99017.49
2018-02-25T06:17:58.208Z,99019.82
2018-02-25T06:19:01.821Z,99017.81
2018-02-25T06:20:05.596Z,99019.50
2018-02-25T06:21:09.346Z,99024.28
2018-02-25T06:22:13.072Z,99015.23
2018-02-25T06:23:16.935Z,99018.05
2018-02-25T06:24:21.092Z,99021.77
2018-02-25T06:25:25.128Z,99020.72
2018-02-25T06:26:29.154Z,99021.27
2018-02-25T06:27:32.782Z,99018.66
2018-02-25T06:28:36.513Z,99019.20
2018-02-25T06:29:40.287Z,99010.70
2018-02-25T06:30:43.902Z,99015.98
2018-02-25T06:31:47.753Z,99019.27
2018-02-25T06:32:51.237Z,99017.25
2018-02-25T06:33:54.784Z,99017.00
2018-02-25T06:34:58.657Z,99016.47
2018-02-25T06:36:02.442Z,99016.75
2018-02-25T06:37:06.022Z,99020.20
2018-02-25T06:38:09.847Z,99015.67
2018-02-25T06:39:13.454Z,99024.63
2018-02-25T06:40:16.895Z,99017.80
2018-02-25T06:41:20.483Z,99017.30
2018-02-25T06:42:23.991Z,99016.07
2018-02-25T06:43:27.806Z,99019.92
2018-02-25T06:44:31.565Z,99025.47
2018-02-25T06:45:35.397Z,99015.33
2018-02-25T06:46:38.994Z,99023.14
2018-02-25T06:47:42.836Z,99018.97
2018-02-25T06:48:46.644Z,99024.91
2018-02-25T06:49:50.347Z,99030.77
2018-02-25T06:50:54.613Z,99029.10
2018-02-25T06:51:58.645Z,99032.48
2018-02-25T06:53:02.177Z,99033.41
2018-02-25T06:54:06.115Z,99037.96
2018-02-25T06:55:09.692Z,99035.05
2018-02-25T06:56:13.473Z,99039.26
2018-02-25T06:57:17.525Z,99042.05
2018-02-25T06:58:21.122Z,99041.82
2018-02-25T06:59:24.779Z,99032.39
2018-02-25T07:00:28.362Z,99048.05
2018-02-25T07:01:32.128Z,99042.71
2018-02-25T07:02:35.738Z,99050.23
2018-02-25T07:03:39.917Z,99044.31
2018-02-25T07:04:43.531Z,99042.56
2018-02-25T07:05:47.415Z,99042.50
2018-02-25T07:06:51.265Z,99045.73
2018-02-25T07:07:55.013Z,99038.15
2018-02-25T07:08:58.809Z,99038.11
2018-02-25T07:10:02.671Z,99037.91
2018-02-25T07:11:06.516Z,99042.61
2018-02-25T07:12:10.300Z,99047.44
2018-02-25T07:13:14.025Z,99050.11
2018-02-25T07:14:17.822Z,99042.44
2018-02-25T07:15:21.955Z,99047.73
2018-02-25T07:16:25.871Z,99040.78
2018-02-25T07:17:29.525Z,99040.72
2018-02-25T07:18:33.284Z,99049.46
2018-02-25T07:19:37.157Z,99049.81
2018-02-25T07:20:40.824Z,99050.67
2018-02-25T07:21:45.158Z,99045.30
2018-02-25T07:22:48.828Z,99047.83
2018-02-25T07:23:52.473Z,99049.97
2018-02-25T07:24:56.130Z,99050.70
2018-02-25T07:26:00.086Z,99040.14
2018-02-25T07:27:03.874Z,99040.14
2018-02-25T07:28:08.035Z,99045.78
2018-02-25T07:29:11.789Z,99047.41
2018-02-25T07:30:15.486Z,99043.80
2018-02-25T07:31:19.203Z,99040.69
2018-02-25T07:32:22.919Z,99040.95
2018-02-25T07:33:26.486Z,99050.45
2018-02-25T07:34:30.147Z,99048.46
2018-02-25T07:35:33.708Z,99051.80
2018-02-25T07:36:37.335Z,99055.13
2018-02-25T07:37:40.993Z,99055.63
2018-02-25T07:38:44.681Z,99050.80
2018-02-25T07:39:48.262Z,99048.98
2018-02-25T07:40:52.183Z,99044.16
2018-02-25T07:41:55.926Z,99054.38
2018-02-25T07:42:59.699Z,99047.64
2018-02-25T07:44:03.338Z,99057.69
2018-02-25T07:45:07.071Z,99050.61
2018-02-25T07:46:10.702Z,99053.25
2018-02-25T07:47:14.443Z,99052.62
2018-02-25T07:48:17.989Z,99050.52
2018-02-25T07:49:21.715Z,99051.58
2018-02-25T07:50:25.187Z,99046.71
2018-02-25T07:51:28.742Z,99047.67
2018-02-25T07:52:32.239Z,99045.46
2018-02-25T07:53:36.156Z,99055.50
2018-02-25T07:54:39.848Z,99045.64
2018-02-25T07:55:43.417Z,99048.16
2018-02-25T07:56:48.073Z,99049.84
2018-02-25T07:57:51.629Z,99049.76
2018-02-25T07:58:55.272Z,99049.98
2018-02-25T07:59:58.950Z,99052.91
2018-02-25T08:01:02.684Z,99057.22
2018-02-25T08:02:06.273Z,99052.18
2018-02-25T08:03:09.841Z,99055.68
2018-02-25T08:04:13.418Z,99059.71
2018-02-25T08:05:16.958Z,99046.72
2018-02-25T08:06:20.410Z,99053.56
2018-02-25T08:07:23.836Z,99053.72
2018-02-25T08:08:27.300Z,99051.51
2018-02-25T08:09:30.955Z,99053.94
2018-02-25T08:10:35.771Z,99049.37
2018-02-25T08:11:39.274Z,99052.92
2018-02-25T08:12:42.748Z,99051.05
2018-02-25T08:13:46.250Z,99052.91
2018-02-25T08:14:50.364Z,99050.34
2018-02-25T08:15:53.778Z,99050.95
2018-02-25T08:16:57.383Z,99042.86
2018-02-25T08:18:00.924Z,99042.70
2018-02-25T08:19:04.382Z,99044.48
2018-02-25T08:20:08.669Z,99049.52
2018-02-25T08:21:12.416Z,99042.23
2018-02-25T08:22:16.342Z,99036.26
2018-02-25T08:23:19.826Z,99045.05
2018-02-25T08:24:23.189Z,99044.22
2018-02-25T08:25:26.785Z,99046.91
2018-02-25T08:26:30.554Z,99049.27
2018-02-25T08:27:34.008Z,99040.20
2018-02-25T08:28:37.659Z,99048.67
2018-02-25T08:29:41.225Z,99044.59
2018-02-25T08:30:44.684Z,99057.75
2018-02-25T08:31:48.065Z,99047.69
2018-02-25T08:32:51.538Z,99050.79
2018-02-25T08:33:55.331Z,99048.56
2018-02-25T08:34:58.799Z,99054.96
2018-02-25T08:36:02.168Z,99057.30
2018-02-25T08:37:06.033Z,99063.86
2018-02-25T08:38:09.930Z,99051.37
2018-02-25T08:39:14.094Z,99058.46
2018-02-25T08:40:17.970Z,99058.55
2018-02-25T08:41:21.693Z,99060.04
2018-02-25T08:42:25.058Z,99058.30
2018-02-25T08:43:28.389Z,99064.05
2018-02-25T08:44:31.714Z,99059.78
2018-02-25T08:45:35.243Z,99053.30
2018-02-25T08:46:39.433Z,99059.02
2018-02-25T08:47:42.864Z,99052.50
2018-02-25T08:48:46.275Z,99055.73
2018-02-25T08:49:49.816Z,99057.68
2018-02-25T08:50:53.311Z,99061.92
2018-02-25T08:51:56.807Z,99060.88
2018-02-25T08:53:00.283Z,99055.00
2018-02-25T08:54:03.753Z,99059.38
2018-02-25T08:55:07.266Z,99062.76
2018-02-25T08:56:10.758Z,99055.86
2018-02-25T08:57:14.517Z,99060.02
2018-02-25T08:58:18.165Z,99058.05
2018-02-25T08:59:21.743Z,99062.87
2018-02-25T09:00:25.213Z,99055.45
2018-02-25T09:01:28.667Z,99057.70
2018-02-25T09:02:32.220Z,99051.84
2018-02-25T09:03:35.521Z,99060.21
2018-02-25T09:04:39.102Z,99064.03
2018-02-25T09:05:42.677Z,99067.19
2018-02-25T09:06:46.316Z,99066.41
2018-02-25T09:07:49.507Z,99062.10
2018-02-25T09:08:52.857Z,99065.12
2018-02-25T09:09:56.317Z,99062.79
2018-02-25T09:11:00.104Z,99065.96
2018-02-25T09:12:03.694Z,99060.21
2018-02-25T09:13:07.132Z,99061.67
2018-02-25T09:14:10.638Z,99060.47
2018-02-25T09:15:14.639Z,99059.33
2018-02-25T09:16:18.012Z,99058.86
2018-02-25T09:17:21.644Z,99075.27
2018-02-25T09:18:25.075Z,99067.50
2018-02-25T09:19:29.269Z,99066.20
2018-02-25T09:20:32.707Z,99059.33
2018-02-25T09:21:36.096Z,99068.94
2018-02-25T09:22:39.474Z,99066.25
2018-02-25T09:23:43.129Z,99064.36
2018-02-25T09:24:46.670Z,99064.30
2018-02-25T09:25:50.169Z,99062.81
2018-02-25T09:26:53.500Z,99057.09
2018-02-25T09:27:56.780Z,99064.33
2018-02-25T09:29:00.245Z,99047.17
2018-02-25T09:30:03.872Z,99064.28
2018-02-25T09:31:07.223Z,99067.11
2018-02-25T09:32:10.673Z,99067.47
2018-02-25T09:33:14.132Z,99069.84
2018-02-25T09:34:17.480Z,99064.37
2018-02-25T09:35:20.961Z,99064.42
2018-02-25T09:36:25.881Z,99058.52
2018-02-25T09:37:29.418Z,99064.03
2018-02-25T09:38:33.103Z,99061.91
2018-02-25T09:39:36.678Z,99061.14
2018-02-25T09:40:40.232Z,99054.16
2018-02-25T09:41:43.779Z,99043.81
2018-02-25T09:42:47.635Z,99052.11
2018-02-25T09:43:51.022Z,99048.70
2018-02-25T09:44:54.614Z,99038.59
2018-02-25T09:45:58.011Z,99051.22
2018-02-25T09:47:01.522Z,99042.14
2018-02-25T09:48:06.214Z,99053.47
2018-02-25T09:49:10.090Z,99056.92
2018-02-25T09:50:13.694Z,99052.24
2018-02-25T09:51:17.249Z,99043.44
2018-02-25T09:52:20.785Z,99047.82
2018-02-25T09:53:24.129Z,99038.61
2018-02-25T09:54:27.665Z,99049.56
2018-02-25T09:55:31.495Z,99047.01
2018-02-25T09:56:35.355Z,99041.06
2018-02-25T09:57:38.779Z,99042.02
2018-02-25T09:58:42.099Z,99040.36
2018-02-25T09:59:45.390Z,99043.28
2018-02-25T10:00:48.772Z,99041.58
2018-02-25T10:01:52.623Z,99040.19
2018-02-25T10:02:56.093Z,99034.56
2018-02-25T10:03:59.504Z,99036.62
2018-02-25T10:05:03.145Z,99035.52
2018-02-25T10:06:06.594Z,99030.91
2018-02-25T10:07:10.242Z,99037.02
2018-02-25T10:09:17.098Z,99040.16
2018-02-25T10:10:20.549Z,99039.27
2018-02-25T10:11:24.062Z,99039.31
2018-02-25T10:12:27.522Z,99039.09
2018-02-25T10:13:31.176Z,99036.23
2018-02-25T10:14:35.128Z,99042.03
2018-02-25T10:15:38.955Z,99029.70
2018-02-25T10:16:42.370Z,99038.98
2018-02-25T10:17:45.723Z,99035.79
2018-02-25T10:18:49.095Z,99040.42
2018-02-25T10:19:52.465Z,99036.81
2018-02-25T10:20:56.292Z,99033.83
2018-02-25T10:21:59.799Z,99031.87
2018-02-25T10:23:03.300Z,99043.56
2018-02-25T10:24:06.665Z,99037.94
2018-02-25T10:25:10.212Z,99045.33
2018-02-25T10:26:13.563Z,99034.55
2018-02-25T10:27:17.275Z,99034.33
2018-02-25T10:28:20.718Z,99040.90
2018-02-25T10:29:24.045Z,99034.45
2018-02-25T10:30:27.408Z,99041.52
2018-02-25T10:31:31.144Z,99041.02
2018-02-25T10:32:34.564Z,99037.59
2018-02-25T10:33:38.358Z,99032.36
2018-02-25T10:34:41.661Z,99029.58
2018-02-25T10:35:45.139Z,99031.96
2018-02-25T10:36:48.383Z,99020.75
2018-02-25T10:37:51.812Z,99019.69
2018-02-25T10:38:55.217Z,99018.16
2018-02-25T10:39:59.118Z,99023.63
2018-02-25T10:41:02.425Z,99025.73
2018-02-25T10:42:05.709Z,99025.30
2018-02-25T10:43:09.104Z,99020.23
2018-02-25T10:44:12.451Z,99030.39
2018-02-25T10:45:15.752Z,99031.48
2018-02-25T10:46:19.580Z,99026.70
2018-02-25T10:47:22.975Z,99017.11
2018-02-25T10:48:26.475Z,99028.52
2018-02-25T10:49:29.825Z,99024.81
2018-02-25T10:50:33.251Z,99009.17
2018-02-25T10:51:36.620Z,99020.44
2018-02-25T10:52:42.952Z,99015.16
2018-02-25T10:53:46.224Z,99017.70
2018-02-25T10:54:49.505Z,99017.86
2018-02-25T10:55:52.912Z,99024.08
2018-02-25T10:56:56.184Z,99020.34
2018-02-25T10:57:59.517Z,99015.33
2018-02-25T10:59:03.067Z,99023.48
2018-02-25T11:00:06.754Z,99015.53
2018-02-25T11:01:10.125Z,99006.82
2018-02-25T11:02:13.457Z,98999.79
2018-02-25T11:03:16.750Z,99011.20
2018-02-25T11:04:20.357Z,99009.12
2018-02-25T11:05:23.644Z,98999.62
2018-02-25T11:06:27.144Z,98999.67
2018-02-25T11:07:30.496Z,98993.37
2018-02-25T11:08:33.853Z,99001.76
2018-02-25T11:09:37.271Z,98995.37
2018-02-25T11:10:41.207Z,98999.95
2018-02-25T11:11:44.420Z,99012.77
2018-02-25T11:12:47.696Z,98993.88
2018-02-25T11:13:50.904Z,98988.78
2018-02-25T11:14:54.999Z,98999.93
2018-02-25T11:15:58.311Z,99010.13
2018-02-25T11:17:01.807Z,98994.02
2018-02-25T11:18:05.046Z,98988.96
2018-02-25T11:19:08.436Z,98988.63
2018-02-25T11:20:11.735Z,98989.42
2018-02-25T11:21:15.113Z,98994.09
2018-02-25T11:22:18.514Z,98988.23
2018-02-25T11:23:22.225Z,98983.20
2018-02-25T11:24:25.552Z,98981.64
2018-02-25T11:25:28.894Z,98983.22
2018-02-25T11:26:32.240Z,98981.14
2018-02-25T11:27:35.786Z,98982.34
2018-02-25T11:28:39.312Z,98982.28
2018-02-25T11:29:43.036Z,98984.98
2018-02-25T11:30:46.305Z,98983.33
2018-02-25T11:31:49.634Z,98982.51
2018-02-25T11:32:52.938Z,98976.37
2018-02-25T11:33:56.368Z,98978.53
2018-02-25T11:34:59.719Z,98982.03
2018-02-25T11:36:03.349Z,98974.55
2018-02-25T11:37:06.739Z,98977.72
2018-02-25T11:38:10.151Z,98973.50
2018-02-25T11:39:13.432Z,98972.09
2018-02-25T11:40:16.826Z,98979.05
2018-02-25T11:41:20.698Z,98961.41
2018-02-25T11:42:24.272Z,98977.91
2018-02-25T11:43:27.577Z,98973.05
2018-02-25T11:44:30.973Z,98966.61
2018-02-25T11:45:34.345Z,98969.44
2018-02-25T11:46:37.689Z,98969.77
2018-02-25T11:47:41.198Z,98973.71
2018-02-25T11:48:44.862Z,98962.25
2018-02-25T11:49:48.197Z,98968.09
2018-02-25T11:50:51.553Z,98967.67
2018-02-25T11:51:54.978Z,98964.53
2018-02-25T11:52:58.338Z,98962.52
2018-02-25T11:54:01.752Z,98957.55
2018-02-25T11:55:05.582Z,98959.30
2018-02-25T11:56:08.964Z,98964.73
2018-02-25T11:57:12.451Z,98968.33
2018-02-25T11:58:15.885Z,98964.97
2018-02-25T11:59:19.367Z,98970.91
2018-02-25T12:00:22.786Z,98968.18
2018-02-25T12:01:26.350Z,98964.81
2018-02-25T12:02:29.824Z,98961.42
2018-02-25T12:03:33.275Z,98964.66
2018-02-25T12:04:36.711Z,98948.28
2018-02-25T12:05:40.077Z,98959.95
2018-02-25T12:06:44.191Z,98959.06
2018-02-25T12:07:47.732Z,98956.84
2018-02-25T12:08:50.894Z,98959.75
2018-02-25T12:09:54.047Z,98955.28
2018-02-25T12:10:57.348Z,98965.02
2018-02-25T12:12:01.348Z,98964.89
2018-02-25T12:13:04.706Z,98945.88
2018-02-25T12:14:08.305Z,98945.34
2018-02-25T12:15:11.582Z,98955.05
2018-02-25T12:16:14.925Z,98945.78
2018-02-25T12:17:18.250Z,98943.41
2018-02-25T12:18:21.617Z,98950.15
2018-02-25T12:19:25.059Z,98957.56
2018-02-25T12:20:28.808Z,98951.35
2018-02-25T12:21:32.180Z,98951.08
2018-02-25T12:22:35.518Z,98946.77
2018-02-25T12:23:39.174Z,98949.73
2018-02-25T12:24:42.635Z,98946.83
2018-02-25T12:25:46.007Z,98935.16
2018-02-25T12:26:49.721Z,98941.11
2018-02-25T12:27:54.999Z,98942.19